AirNav   Get Bose SoundSport FEEE
 
 671 users online  

3MO3 Research Medical Center Heliport
Kansas City, Missouri, USA

GOING TO KANSAS CITY?


FAA INFORMATION EFFECTIVE 15 AUGUST 2019

Location

FAA Identifier: 3MO3
Lat/Long: 39-00-29.5100N 094-33-24.2900W
39-00.491833N 094-33.404833W
39.0081972,-94.5567472
(estimated)
Elevation: 947 ft. / 288.6 m (surveyed)
Variation: 05E (1985)
Time zone: UTC -5 (UTC -6 during Standard Time)
Zip code: 64132

Heliport Operations

Heliport use: Private use, MEDICAL.
Activation date: 02/1976
Control tower: no
ARTCC: KANSAS CITY CENTER
FSS: COLUMBIA FLIGHT SERVICE STATION
Attendance: CONTINUOUS
FOR SVC CALL 276-4177
Wind indicator: yes
Segmented circle: no
Lights: FOR PERIMETER LGTS CALL 816-276-4177.

Heliport Communications

WX ASOS at MKC (7 nm N): PHONE 816-329-2843
WX ASOS at LXT (9 nm E): 124.175 (816-347-9807)
WX ASOS at OJC (13 nm SW): PHONE 913-780-6969
WX ASOS at MCI (19 nm NW): PHONE 816-329-2808
WX ASOS at IXD (19 nm SW): 135.325 (913-780-6987)

Nearby radio navigation aids

VOR radial/distance  VOR name  Freq  Var
MCIr148/18.6KANSAS CITY VORTAC113.2505E
ANXr248/20.6NAPOLEON VORTAC114.0007E

Heliport Services

Runway Information

Helipad H2

Dimensions: 70 x 100 ft. / 21 x 30 m
Surface: asphalt
Runway edge lights: PERI
Traffic pattern: leftleft

Helipad H1

Dimensions: 60 x 55 ft. / 18 x 17 m
Surface: concrete
Latitude: 39-00.491833N
Longitude: 094-33.404833W
Elevation: 947.0 ft.
Traffic pattern: leftleft
Obstructions: 90 ft. bldg, 70 ft. from runway
BLDG 70' WEST OF HELIPAD.

Heliport Ownership and Management from official FAA records

Ownership: Privately-owned
Owner: RESEARCH MEDICAL CENTER
2316 EAST MEYER BLVD
KANSAS CITY, MO 64132
Phone 816-276-4000
Manager: DIRECTOR OF PLANT OPNS
2316 EAST MEYER BLVD
KANSAS CITY, MO 64132
Phone 816-276-4177
MICHAEL SWITZER

Heliport Operational Statistics

Aircraft based on the field: 1
Helicopters: 1
    

Additional Remarks

A52-H2 35' PLINES 110' E; 50' TREES 225' S; 20' PKG STRUCTURE 90' N.
9500 LB GWT LMT PER ARPT MGR.
FOR CD CTC KANSAS CITY APCH AT 816-329-2710.

Instrument Procedures

There are no published instrument procedures at 3MO3.

Some nearby airports with instrument procedures:

KMKC - Charles B Wheeler Downtown Airport (7 nm N)
KLXT - Lee's Summit Municipal Airport (9 nm E)
KOJC - Johnson County Executive Airport (13 nm SW)
3GV - East Kansas City Airport (16 nm E)
KMCI - Kansas City International Airport (19 nm NW)
KIXD - New Century AirCenter Airport (19 nm SW)
 
Loc | Ops | Rwys | IFR | FBO | Links
Com | Nav | Svcs | Stats | Notes

Kansas City Aviation Department
 
Area around 3MO3 (Research Medical Center Heliport)
 
Road maps at: MapQuest Bing Google
 
Aerial photo
No photo
 
Sectional chart

 
Airport distance calculator
Flying to Research Medical Center Heliport? Find the distance to fly.

From to 3MO3

Sunrise and sunset
Times for 17-Aug-2019
 Local
(UTC-5)
 Zulu
(UTC)
Morning civil twilight06:0611:06
Sunrise06:3411:34
Sunset20:1001:10
Evening civil twilight20:3801:38

Current date and time
Zulu (UTC)  17-Aug-2019 12:11:45
Local (UTC-5)  17-Aug-2019 07:11:45
 
METAR
KMKC 
7nm N 
171154Z 00000KT 10SM -TSRA FEW040 BKN085 OVC110 22/17 A2995 RMK AO2 PK WND 02026/1126 LTG DSNT ALQDS TSB15E30B50 SLP134 P0008 60114 70114 T02170172 10244 20211 53012
KLXT 
9nm E 
171200Z AUTO 20007KT 9SM -TSRA FEW065 SCT080 BKN110 20/18 A3000 RMK AO2 LTG DSNT ALQDS TSB1154 P0001 T02000183
KOJC 
13nm SW 
171153Z 28005KT 2SM VCTS -RA BR FEW012 BKN042 OVC070 19/19 A3002 RMK AO2 LTG DSNT ALQDS RAB1054E09B32 TSB18E50 SLP156 TS N-SW MOV W P0053 60152 70152 T01890189 10217 20183 53026
KIXD 
19nm SW 
170844Z AUTO 34016G49KT 3/4SM TS BR 19/18 A2992 RMK AO2 PK WND 33051/0832 WSHFT 0816 LTG DSNT ALQDS RAEMM P0088 T01890178 PWINO $
KMCI 
19nm NW 
171153Z 08007KT 7SM TSRA SCT050CB SCT080 OVC110 20/19 A2994 RMK AO2 LTG DSNT ALQDS TSB13E32B36 SLP127 TS OHD MOV E P0019 60066 70066 T02000194 10233 20194 50001 $
TAF
KMKC 
7nm N 
171135Z 1712/1812 33006KT P6SM -TSRA FEW080CB BKN110 FM171400 15007KT P6SM BKN045 FM172000 19005KT P6SM SCT070 FM180200 18006KT P6SM VCTS SCT100CB
KIXD 
19nm SW 
171135Z 1712/1812 30009KT P6SM -TSRA OVC090CB FM171400 15007KT P6SM BKN045 FM172000 18008KT P6SM SCT080 FM180200 18008KT P6SM VCTS SCT100CB
KMCI 
19nm NW 
171135Z 1712/1812 02006KT P6SM -RA VCTS SCT040CB OVC080 TEMPO 1712/1714 3SM -TSRA BKN040CB FM171400 15007KT P6SM BKN045 FM171800 18008KT P6SM SCT060 FM180200 17008KT P6SM VCTS SCT100CB
NOTAMs
Click for the latest NOTAMs
NOTAMs are issued by the DoD/FAA and will open in a separate window not controlled by AirNav.

 

 
 

Would you like to see your business listed on this page?

 If your business provides an interesting product or service to pilots, flight crews, aircraft, or users of the Research Medical Center Heliport, you should consider listing it here.  To start the listing process, click on the button below
 
Add a business
 

Other Pages about Research Medical Center Heliport

Update a link
 
Copyright © AirNav, LLC. All rights reserved. Privacy Policy  Contact